Time;durP1;ratioP1;P1;durP2;ratioP2;P2;SDS_P1;SDS_P2;PMS_P1;PMS_P2;Temp;Humidity;BMP_temperature;BMP_pressure;BME280_temperature;BME280_humidity;BME280_pressure;Samples;Min_cycle;Max_cycle;Signal;HPM_P1;HPM_P2
2024/03/26 00:00:19;;;;;;;13.38;7.65;;;;;;;;;;5103660;28;20042;-72
2024/03/26 00:02:45;;;;;;;24.13;13.48;;;;;;;;;;5104090;28;20047;-71
2024/03/26 00:05:11;;;;;;;15.43;9.32;;;;;;;;;;5102428;28;20106;-73
2024/03/26 00:07:38;;;;;;;18.67;10.15;;;;;;;;;;5103299;28;20024;-71
2024/03/26 00:10:04;;;;;;;21.42;12.23;;;;;;;;;;5098918;28;20736;-72
2024/03/26 00:12:30;;;;;;;21.20;10.55;;;;;;;;;;5102869;28;20138;-73
2024/03/26 00:14:56;;;;;;;17.05;8.05;;;;;;;;;;5101435;28;20110;-72
2024/03/26 00:17:22;;;;;;;30.17;15.20;;;;;;;;;;5102675;28;21629;-72
2024/03/26 00:19:48;;;;;;;25.10;12.63;;;;;;;;;;5101437;28;20020;-72
2024/03/26 00:22:14;;;;;;;30.98;15.68;;;;;;;;;;5102406;28;20079;-72
2024/03/26 00:24:41;;;;;;;34.42;17.70;;;;;;;;;;5100354;28;20046;-73
2024/03/26 00:27:07;;;;;;;14.90;7.80;;;;;;;;;;5101169;28;20035;-72
2024/03/26 00:29:33;;;;;;;12.07;6.30;;;;;;;;;;5103797;28;20015;-73
2024/03/26 00:31:59;;;;;;;13.45;7.55;;;;;;;;;;5101315;28;20036;-73
2024/03/26 00:34:25;;;;;;;7.68;4.32;;;;;;;;;;5102456;28;20027;-72
2024/03/26 00:36:51;;;;;;;7.03;4.22;;;;;;;;;;5101730;28;20099;-72
2024/03/26 00:39:17;;;;;;;6.95;4.13;;;;;;;;;;5084630;28;20118;-72
2024/03/26 00:41:43;;;;;;;6.57;4.20;;;;;;;;;;5101586;28;20536;-72
2024/03/26 00:44:09;;;;;;;7.13;3.83;;;;;;;;;;5100868;28;20055;-72
2024/03/26 00:46:35;;;;;;;6.80;4.18;;;;;;;;;;5102884;28;20062;-72
2024/03/26 00:49:01;;;;;;;6.88;3.95;;;;;;;;;;5100837;28;20532;-71
2024/03/26 00:51:28;;;;;;;8.02;4.38;;;;;;;;;;5100431;28;20043;-72
2024/03/26 00:53:54;;;;;;;6.60;4.03;;;;;;;;;;5100711;28;20036;-72
2024/03/26 00:56:20;;;;;;;6.80;4.30;;;;;;;;;;5102912;28;20028;-72
2024/03/26 00:58:46;;;;;;;8.32;4.15;;;;;;;;;;5101699;28;20015;-72
2024/03/26 01:01:12;;;;;;;7.35;4.20;;;;;;;;;;5101895;28;20016;-73
2024/03/26 01:03:38;;;;;;;7.25;4.38;;;;;;;;;;5102032;28;20411;-72
2024/03/26 01:06:04;;;;;;;7.05;4.18;;;;;;;;;;5100085;28;20794;-73
2024/03/26 01:08:31;;;;;;;7.03;4.13;;;;;;;;;;5101463;28;20022;-72
2024/03/26 01:10:57;;;;;;;8.18;4.20;;;;;;;;;;5096247;28;20028;-73
2024/03/26 01:13:23;;;;;;;7.15;4.20;;;;;;;;;;5102026;28;20034;-73
2024/03/26 01:15:51;;;;;;;6.25;3.60;;;;;;;;;;5099376;28;20024;-73
2024/03/26 01:18:17;;;;;;;6.20;3.63;;;;;;;;;;5105528;28;20106;-73
2024/03/26 01:20:44;;;;;;;7.20;3.72;;;;;;;;;;5096121;28;20426;-72
2024/03/26 01:23:10;;;;;;;7.57;4.00;;;;;;;;;;5099176;28;20515;-73
2024/03/26 01:25:36;;;;;;;6.95;3.90;;;;;;;;;;5100085;28;20040;-72
2024/03/26 01:28:02;;;;;;;6.18;3.47;;;;;;;;;;5101674;28;20491;-71
2024/03/26 01:30:28;;;;;;;6.72;3.83;;;;;;;;;;5099064;28;20028;-73
2024/03/26 01:32:54;;;;;;;8.65;4.50;;;;;;;;;;5100705;28;20106;-72
2024/03/26 01:35:20;;;;;;;8.30;4.00;;;;;;;;;;5099454;28;20035;-73
2024/03/26 01:37:47;;;;;;;7.18;4.20;;;;;;;;;;5101851;28;20027;-72
2024/03/26 01:40:13;;;;;;;9.60;4.35;;;;;;;;;;5098015;28;20028;-72
2024/03/26 01:42:39;;;;;;;8.02;3.95;;;;;;;;;;5101741;28;20016;-72
2024/03/26 01:45:06;;;;;;;7.40;4.20;;;;;;;;;;5100471;28;20035;-71
2024/03/26 01:47:32;;;;;;;7.13;4.00;;;;;;;;;;5098179;28;20689;-72
2024/03/26 01:50:01;;;;;;;9.70;4.53;;;;;;;;;;5098011;28;20028;-72
2024/03/26 01:52:28;;;;;;;8.68;4.75;;;;;;;;;;5099678;28;20060;-72
2024/03/26 01:54:57;;;;;;;6.68;4.18;;;;;;;;;;5081604;28;20028;-73
2024/03/26 01:57:24;;;;;;;8.30;4.97;;;;;;;;;;5098162;28;20024;-72
2024/03/26 01:59:52;;;;;;;8.18;4.80;;;;;;;;;;5100269;28;20114;-72
2024/03/26 02:02:18;;;;;;;8.45;5.00;;;;;;;;;;5097266;28;20028;-73
2024/03/26 02:04:46;;;;;;;9.07;4.93;;;;;;;;;;5099266;28;20040;-71
2024/03/26 02:07:12;;;;;;;11.40;5.20;;;;;;;;;;5078489;28;20035;-72
2024/03/26 02:09:38;;;;;;;8.45;4.90;;;;;;;;;;5098821;28;20537;-72
2024/03/26 02:12:04;;;;;;;8.77;5.32;;;;;;;;;;5099470;28;20070;-70
2024/03/26 02:14:30;;;;;;;8.88;5.20;;;;;;;;;;5095864;28;20020;-72
2024/03/26 02:16:56;;;;;;;8.45;4.78;;;;;;;;;;5099338;28;20020;-73
2024/03/26 02:19:24;;;;;;;11.55;5.63;;;;;;;;;;5101538;28;20057;-73
2024/03/26 02:21:52;;;;;;;10.15;5.70;;;;;;;;;;5085248;28;20028;-75
2024/03/26 02:24:18;;;;;;;10.02;5.50;;;;;;;;;;5097635;28;20077;-73
2024/03/26 02:26:44;;;;;;;11.77;6.07;;;;;;;;;;5107129;28;20216;-72
2024/03/26 02:29:10;;;;;;;10.88;6.15;;;;;;;;;;5096284;28;20020;-72
2024/03/26 02:31:36;;;;;;;12.55;6.28;;;;;;;;;;5100512;28;20048;-74
2024/03/26 02:34:02;;;;;;;10.55;5.20;;;;;;;;;;5099052;28;20031;-71
2024/03/26 02:36:28;;;;;;;9.63;5.63;;;;;;;;;;5107193;28;20032;-73
2024/03/26 02:38:54;;;;;;;10.18;5.80;;;;;;;;;;5098586;28;20085;-74
2024/03/26 02:41:20;;;;;;;11.75;5.80;;;;;;;;;;5105131;28;20055;-72
2024/03/26 02:43:50;;;;;;;11.25;5.93;;;;;;;;;;5093330;28;20044;-73
2024/03/26 02:46:16;;;;;;;10.07;5.85;;;;;;;;;;5103491;28;20066;-72
2024/03/26 02:48:42;;;;;;;10.38;6.00;;;;;;;;;;5103332;28;20170;-74
2024/03/26 02:51:08;;;;;;;10.25;5.68;;;;;;;;;;5111138;28;20414;-71
2024/03/26 02:53:34;;;;;;;11.20;5.60;;;;;;;;;;5106129;28;20039;-74
2024/03/26 02:56:00;;;;;;;10.88;6.00;;;;;;;;;;5108003;28;20039;-76
2024/03/26 02:58:27;;;;;;;11.48;6.15;;;;;;;;;;5102863;28;20027;-71
2024/03/26 03:00:53;;;;;;;12.50;6.60;;;;;;;;;;5102755;28;20463;-73
2024/03/26 03:03:19;;;;;;;11.60;6.47;;;;;;;;;;5106067;28;20070;-73
2024/03/26 03:05:45;;;;;;;12.23;6.20;;;;;;;;;;5107582;28;20046;-72
2024/03/26 03:08:11;;;;;;;11.93;6.68;;;;;;;;;;5092047;28;20451;-75
2024/03/26 03:10:37;;;;;;;13.65;7.00;;;;;;;;;;5103324;28;20066;-75
2024/03/26 03:13:03;;;;;;;11.63;6.80;;;;;;;;;;5103222;28;20016;-70
2024/03/26 03:15:29;;;;;;;12.18;6.68;;;;;;;;;;5099062;28;20445;-72
2024/03/26 03:17:55;;;;;;;11.80;6.68;;;;;;;;;;5103119;28;20475;-73
2024/03/26 03:20:21;;;;;;;11.10;6.57;;;;;;;;;;5101381;28;20035;-74
2024/03/26 03:22:48;;;;;;;11.93;7.00;;;;;;;;;;5102999;28;20023;-72
2024/03/26 03:25:14;;;;;;;10.88;6.68;;;;;;;;;;5102188;28;20032;-73
2024/03/26 03:27:40;;;;;;;11.10;6.40;;;;;;;;;;5104322;28;20469;-73
2024/03/26 03:30:06;;;;;;;12.30;7.03;;;;;;;;;;5102054;28;20027;-71
2024/03/26 03:32:32;;;;;;;11.40;6.15;;;;;;;;;;5102707;28;20028;-72
2024/03/26 03:34:58;;;;;;;11.20;6.50;;;;;;;;;;5102820;28;20384;-73
2024/03/26 03:37:24;;;;;;;11.70;6.60;;;;;;;;;;5083211;28;20040;-73
2024/03/26 03:39:50;;;;;;;12.27;6.97;;;;;;;;;;5103105;28;20025;-73
2024/03/26 03:42:18;;;;;;;12.32;7.28;;;;;;;;;;5099725;28;20072;-74
2024/03/26 03:44:44;;;;;;;13.68;7.57;;;;;;;;;;5100295;28;20040;-72
2024/03/26 03:47:10;;;;;;;11.98;7.53;;;;;;;;;;5099777;28;20024;-72
2024/03/26 03:49:36;;;;;;;15.98;7.70;;;;;;;;;;5083871;28;20039;-72
2024/03/26 03:52:03;;;;;;;15.88;7.93;;;;;;;;;;5099414;28;20016;-70
2024/03/26 03:54:29;;;;;;;19.48;8.90;;;;;;;;;;5100594;28;20020;-75
2024/03/26 03:56:55;;;;;;;15.77;8.30;;;;;;;;;;5085842;28;20396;-71
2024/03/26 03:59:22;;;;;;;20.38;9.60;;;;;;;;;;5103350;28;20038;-74
2024/03/26 04:01:48;;;;;;;20.23;10.18;;;;;;;;;;5098381;28;20036;-74
2024/03/26 04:04:14;;;;;;;24.27;11.68;;;;;;;;;;5096279;28;20051;-73
2024/03/26 04:06:40;;;;;;;29.40;14.05;;;;;;;;;;5105343;28;20330;-73
2024/03/26 04:09:06;;;;;;;34.47;16.40;;;;;;;;;;5099593;28;20024;-71
2024/03/26 04:11:32;;;;;;;34.63;16.40;;;;;;;;;;5097969;28;20036;-75
2024/03/26 04:13:58;;;;;;;36.42;17.05;;;;;;;;;;5099402;28;20031;-72
2024/03/26 04:16:24;;;;;;;35.20;16.58;;;102.40;2227.20;;;;;;5104552;28;20370;-72
2024/03/26 04:18:50;;;;;;;35.55;15.50;;;77.50;2227.20;;;;;;5103062;28;20035;-73
2024/03/26 04:21:16;;;;;;;41.40;16.63;;;;;;;;;;5100105;28;20625;-72
2024/03/26 04:23:42;;;;;;;39.13;17.83;;;;;;;;;;5103021;28;20099;-72
2024/03/26 04:26:09;;;;;;;39.63;17.90;;;77.40;2227.20;;;;;;5109915;28;20071;-71
2024/03/26 04:28:35;;;;;;;40.60;17.83;;;;;;;;;;5108341;28;20492;-73
2024/03/26 04:31:02;;;;;;;35.75;16.65;;;;;;;;;;5105232;28;20023;-72
2024/03/26 04:33:27;;;;;;;39.35;16.13;;;77.40;2227.20;;;;;;5101525;28;20116;-72
2024/03/26 04:35:53;;;;;;;35.75;16.75;;;77.10;2227.20;;;;;;5101923;28;20443;-72
2024/03/26 04:38:19;;;;;;;37.22;16.55;;;77.10;2227.20;;;;;;5095819;28;20068;-73
2024/03/26 04:40:44;;;;;;;31.48;13.82;;;77.10;2227.20;;;;;;5097357;28;20524;-73
2024/03/26 04:43:11;;;;;;;27.13;12.75;;;77.10;2227.20;;;;;;5097296;28;20028;-73
2024/03/26 04:45:37;;;;;;;28.55;13.50;;;77.10;2227.20;;;;;;5099567;28;20506;-73
2024/03/26 04:48:04;;;;;;;29.33;12.50;;;77.10;2227.20;;;;;;5098710;28;20031;-72
2024/03/26 04:50:30;;;;;;;25.67;11.35;;;77.20;2227.20;;;;;;5095115;28;20089;-75
2024/03/26 04:52:56;;;;;;;25.33;10.48;;;77.20;2227.20;;;;;;5099584;28;20019;-74
2024/03/26 04:55:22;;;;;;;25.98;12.35;;;77.20;2227.20;;;;;;5101580;28;20113;-72
2024/03/26 04:57:48;;;;;;;27.25;11.40;;;77.20;2227.20;;;;;;5098467;28;20048;-73
2024/03/26 05:00:14;;;;;;;23.15;10.80;;;77.20;2227.20;;;;;;5101604;28;20036;-72
2024/03/26 05:02:41;;;;;;;26.23;11.57;;;77.00;2227.20;;;;;;5104715;28;20102;-72
2024/03/26 05:05:08;;;;;;;23.33;11.18;;;77.20;2227.20;;;;;;5104441;28;20047;-71
2024/03/26 05:07:34;;;;;;;23.90;10.20;;;77.20;2227.20;;;;;;5101634;28;20046;-73
2024/03/26 05:10:00;;;;;;;27.92;11.40;;;77.20;2227.20;;;;;;5105541;28;20027;-74
2024/03/26 05:12:26;;;;;;;23.50;10.57;;;77.20;2227.20;;;;;;5103260;28;20024;-73
2024/03/26 05:14:52;;;;;;;23.45;10.82;;;77.20;2227.20;;;;;;5098268;28;20476;-73
2024/03/26 05:17:18;;;;;;;19.00;10.20;;;77.30;2227.20;;;;;;5101029;28;20027;-74
2024/03/26 05:19:44;;;;;;;18.77;9.20;;;77.40;2227.20;;;;;;5098339;28;20089;-72
2024/03/26 05:22:12;;;;;;;18.02;8.57;;;77.50;2227.20;;;;;;5101092;28;20051;-72
2024/03/26 05:24:39;;;;;;;17.23;8.57;;;77.60;2227.20;;;;;;5095543;28;20024;-72
2024/03/26 05:27:05;;;;;;;18.45;8.70;;;77.70;2227.20;;;;;;5100789;28;20105;-72
2024/03/26 05:29:31;;;;;;;21.75;9.63;;;102.70;2227.20;;;;;;5094910;28;20464;-72
2024/03/26 05:31:57;;;;;;;19.98;10.18;;;103.00;2227.20;;;;;;5105643;28;20050;-73
2024/03/26 05:34:23;;;;;;;21.38;11.25;;;;;;;;;;5097687;28;20483;-72
2024/03/26 05:36:50;;;;;;;22.92;10.27;;;;;;;;;;5099359;28;20031;-73
2024/03/26 05:39:16;;;;;;;25.33;9.70;;;;;;;;;;5104029;28;20043;-72
2024/03/26 05:41:42;;;;;;;18.98;8.98;;;;;;;;;;5105911;28;20020;-73
2024/03/26 05:44:07;;;;;;;21.75;10.07;;;153.80;2252.80;;;;;;5101697;28;20093;-73
2024/03/26 05:46:34;;;;;;;19.45;9.65;;;153.70;2252.80;;;;;;5101134;28;20039;-74
2024/03/26 05:49:00;;;;;;;17.52;9.10;;;153.80;2252.80;;;;;;5094830;28;20013;-73
2024/03/26 05:51:26;;;;;;;18.50;9.82;;;154.10;2252.80;;;;;;5097095;28;20122;-73
2024/03/26 05:53:53;;;;;;;17.25;9.68;;;154.00;2252.80;;;;;;5098942;28;20048;-72
2024/03/26 05:56:19;;;;;;;15.85;8.70;;;153.90;2252.80;;;;;;5103020;28;20030;-73
2024/03/26 05:58:44;;;;;;;16.73;8.05;;;153.90;2252.80;;;;;;5101584;28;20024;-72
2024/03/26 06:01:10;;;;;;;13.93;7.60;;;154.40;2252.80;;;;;;5102044;28;20027;-72
2024/03/26 06:03:36;;;;;;;11.98;6.15;;;;;;;;;;5100118;28;20442;-72
2024/03/26 06:06:03;;;;;;;15.73;8.23;;;;;;;;;;5107781;28;20032;-74
2024/03/26 06:08:29;;;;;;;18.45;8.23;;;;;;;;;;5101330;28;20016;-73
2024/03/26 06:10:55;;;;;;;16.77;8.50;;;154.30;2252.80;;;;;;5099037;28;20039;-73
2024/03/26 06:13:21;;;;;;;17.67;8.93;;;179.30;2252.80;;;;;;5102605;28;20051;-72
2024/03/26 06:15:46;;;;;;;17.92;9.00;;;179.50;2252.80;;;;;;5104982;28;20054;-75
2024/03/26 06:18:12;;;;;;;19.08;9.25;;;179.40;2252.80;;;;;;5101564;28;20469;-72
2024/03/26 06:20:38;;;;;;;15.13;7.78;;;179.50;2252.80;;;;;;5108537;28;20035;-75
2024/03/26 06:23:04;;;;;;;18.15;7.97;;;179.70;2252.80;;;;;;5107090;28;20073;-73
2024/03/26 06:25:30;;;;;;;26.80;12.93;;;179.70;2252.80;;;;;;5102772;28;20396;-73
2024/03/26 06:27:56;;;;;;;46.75;26.33;;;;;;;;;;5107925;28;20028;-73
2024/03/26 06:30:22;;;;;;;43.63;27.15;;;204.90;2252.80;;;;;;5101516;28;20023;-72
2024/03/26 06:32:51;;;;;;;42.33;26.15;;;180.10;2252.80;;;;;;5100550;28;20030;-73
2024/03/26 06:35:17;;;;;;;56.03;33.50;;;205.20;2252.80;;;;;;5094438;28;20503;-76
2024/03/26 06:37:43;;;;;;;578.47;200.57;;;205.20;2252.80;;;;;;5097587;28;20126;-73
2024/03/26 06:40:10;;;;;;;919.72;420.77;;;205.60;2252.80;;;;;;5100772;28;20115;-74
2024/03/26 06:42:36;;;;;;;283.00;129.45;;;205.60;2252.80;;;;;;5091210;28;20073;-75
2024/03/26 06:45:05;;;;;;;129.57;72.68;;;230.40;2252.80;;;;;;5097476;28;20035;-74
2024/03/26 06:47:30;;;;;;;47.45;30.70;;;230.90;2252.80;;;;;;5108479;28;20030;-73
2024/03/26 06:49:56;;;;;;;23.60;14.68;;;281.80;2278.40;;;;;;5107333;28;20023;-72
2024/03/26 06:52:21;;;;;;;11.95;7.20;;;307.40;2304.00;;;;;;5106882;28;20095;-74
2024/03/26 06:54:47;;;;;;;13.02;6.40;;;332.90;2252.80;;;;;;5106236;28;20023;-72
2024/03/26 06:57:13;;;;;;;8.95;5.07;;;333.70;2099.20;;;;;;5109983;28;20361;-72
2024/03/26 06:59:38;;;;;;;8.57;5.25;;;384.00;1945.60;;;;;;5110626;28;20134;-73
2024/03/26 07:02:05;;;;;;;9.32;5.07;;;384.80;1868.80;;;;;;5102028;28;20484;-73
2024/03/26 07:04:31;;;;;;;36.25;21.65;;;384.30;1843.20;;;;;;5098597;28;20165;-72
2024/03/26 07:06:57;;;;;;;40.92;27.80;;;359.20;1868.80;;;;;;5109825;28;20098;-73
2024/03/26 07:09:23;;;;;;;21.05;15.60;;;359.20;1894.40;;;;;;5109873;28;20035;-73
2024/03/26 07:11:48;;;;;;;10.43;6.57;;;384.90;1817.60;;;;;;5110354;28;20023;-72
2024/03/26 07:14:18;;;;;;;13.05;7.35;;;435.20;1740.80;;;;;;5107184;28;20035;-74
2024/03/26 07:16:44;;;;;;;8.32;5.90;;;435.70;1689.60;;;;;;5110602;28;20107;-73
2024/03/26 07:19:10;;;;;;;8.88;3.83;;;435.20;1715.20;;;;;;5100887;28;20134;-73
2024/03/26 07:21:37;;;;;;;11.30;7.80;;;410.50;1689.60;;;;;;5103095;28;20024;-74
2024/03/26 07:24:03;;;;;;;13.55;9.05;;;410.50;1638.40;;;;;;5108239;28;20062;-74
2024/03/26 07:26:29;;;;;;;14.25;9.20;;;435.30;1612.80;;;;;;5104609;28;20369;-73
2024/03/26 07:28:56;;;;;;;30.83;25.08;;;410.20;1689.60;;;;;;5107677;28;20040;-73
2024/03/26 07:31:22;;;;;;;8.65;6.50;;;384.90;1689.60;;;;;;5109337;28;20471;-73
2024/03/26 07:33:48;;;;;;;8.57;5.10;;;384.50;1715.20;;;;;;5114978;28;20077;-74
2024/03/26 07:36:14;;;;;;;8.23;4.63;;;359.00;1792.00;;;;;;5110018;28;20475;-72
2024/03/26 07:38:39;;;;;;;7.95;4.30;;;358.50;1868.80;;;;;;5110662;28;20079;-73
2024/03/26 07:41:07;;;;;;;10.38;5.22;;;333.70;1868.80;;;;;;5120351;28;20042;-73
2024/03/26 07:43:33;;;;;;;4.82;2.72;;;333.70;1920.00;;;;;;5107182;28;20016;-71
2024/03/26 07:45:59;;;;;;;7.70;3.75;;;333.30;1894.40;;;;;;5117812;27;20039;-72
2024/03/26 07:48:24;;;;;;;7.75;3.45;;;332.90;1945.60;;;;;;5111755;28;20538;-72
2024/03/26 07:50:50;;;;;;;8.02;3.88;;;308.00;1945.60;;;;;;5102526;28;20106;-72
2024/03/26 07:53:16;;;;;;;6.15;3.60;;;308.00;1971.20;;;;;;5113132;28;20387;-73
2024/03/26 07:55:41;;;;;;;7.50;4.13;;;308.00;1996.80;;;;;;5104127;28;20080;-71
2024/03/26 07:58:08;;;;;;;7.38;3.65;;;333.00;1996.80;;;;;;5105669;28;20024;-72
2024/03/26 08:00:33;;;;;;;7.03;4.10;;;332.90;1945.60;;;;;;5078753;28;20032;-72
2024/03/26 08:02:59;;;;;;;9.27;5.28;;;332.80;1971.20;;;;;;5112077;28;20016;-73
2024/03/26 08:05:25;;;;;;;7.57;3.90;;;333.00;1945.60;;;;;;5115299;28;20050;-71
2024/03/26 08:07:51;;;;;;;4.93;3.22;;;333.10;1945.60;;;;;;5113238;28;20016;-72
2024/03/26 08:10:17;;;;;;;8.23;3.90;;;333.30;1971.20;;;;;;5114845;28;20496;-71
2024/03/26 08:12:43;;;;;;;8.63;3.83;;;358.40;1945.60;;;;;;5113922;28;20668;-72
2024/03/26 08:15:09;;;;;;;7.18;4.50;;;358.70;1843.20;;;;;;5109252;28;20084;-71
2024/03/26 08:17:34;;;;;;;6.40;3.20;;;358.90;1894.40;;;;;;5113510;27;20034;-72
2024/03/26 08:20:02;;;;;;;6.70;3.28;;;359.10;1843.20;;;;;;5093381;28;20122;-73
2024/03/26 08:22:27;;;;;;;7.55;3.03;;;359.10;1792.00;;;;;;5086224;28;20035;-71
2024/03/26 08:24:53;;;;;;;5.13;3.08;;;358.90;1766.40;;;;;;5106590;28;20016;-72
2024/03/26 08:27:19;;;;;;;9.15;3.58;;;359.00;1766.40;;;;;;5111777;28;20051;-71
2024/03/26 08:29:44;;;;;;;6.80;3.35;;;359.10;1792.00;;;;;;5077854;28;20088;-72
2024/03/26 08:32:10;;;;;;;6.13;2.70;;;359.30;1740.80;;;;;;5102224;28;20392;-72
2024/03/26 08:34:36;;;;;;;6.43;3.33;;;384.10;1740.80;;;;;;5108358;28;20016;-70
2024/03/26 08:37:02;;;;;;;5.32;3.17;;;384.20;1740.80;;;;;;5105690;28;20051;-72
2024/03/26 08:39:28;;;;;;;5.50;2.58;;;384.50;1792.00;;;;;;5084346;28;20074;-71
2024/03/26 08:41:53;;;;;;;5.43;3.10;;;384.60;1689.60;;;;;;5106937;28;20027;-71
2024/03/26 08:44:19;;;;;;;9.45;3.78;;;384.60;1664.00;;;;;;5109513;28;20020;-74
2024/03/26 08:46:45;;;;;;;12.18;4.45;;;384.80;1638.40;;;;;;5107275;28;20039;-71
2024/03/26 08:49:11;;;;;;;5.90;3.20;;;384.70;1612.80;;;;;;5112521;28;20392;-71
2024/03/26 08:51:36;;;;;;;9.48;5.05;;;384.90;1612.80;;;;;;5108850;28;20103;-70
2024/03/26 08:54:02;;;;;;;18.92;14.38;;;409.60;1612.80;;;;;;5109096;28;20035;-70
2024/03/26 08:56:28;;;;;;;12.48;10.43;;;409.70;1638.40;;;;;;5109235;28;20073;-70
2024/03/26 08:58:54;;;;;;;12.70;11.35;;;409.70;1638.40;;;;;;5109612;28;20102;-70
2024/03/26 09:01:20;;;;;;;8.75;6.18;;;409.90;1612.80;;;;;;5103098;28;20024;-70
2024/03/26 09:03:46;;;;;;;7.57;2.75;;;410.40;1638.40;;;;;;5100530;28;20047;-71
2024/03/26 09:06:12;;;;;;;3.40;2.13;;;410.20;1612.80;;;;;;5110943;28;20035;-71
2024/03/26 09:08:38;;;;;;;7.80;3.15;;;410.20;1612.80;;;;;;5108695;28;20074;-71
2024/03/26 09:11:04;;;;;;;6.00;2.72;;;410.50;1536.00;;;;;;5111625;28;20058;-71
2024/03/26 09:13:30;;;;;;;4.57;3.00;;;435.40;1484.80;;;;;;5110915;28;20024;-72
2024/03/26 09:15:56;;;;;;;6.28;3.50;;;435.40;1510.40;;;;;;5109946;28;20035;-71
2024/03/26 09:18:22;;;;;;;6.25;3.65;;;435.50;1408.00;;;;;;5107379;28;20380;-72
2024/03/26 09:20:47;;;;;;;4.30;2.08;;;435.50;1408.00;;;;;;5095831;28;20038;-72
2024/03/26 09:23:13;;;;;;;3.55;1.92;;;435.50;1408.00;;;;;;5104706;28;20106;-72
2024/03/26 09:25:40;;;;;;;4.25;1.70;;;435.80;1382.40;;;;;;5111017;28;20031;-72
2024/03/26 09:28:06;;;;;;;3.00;1.70;;;435.70;1382.40;;;;;;5112369;28;20026;-72
2024/03/26 09:30:31;;;;;;;4.68;1.90;;;435.60;1356.80;;;;;;5112361;28;20106;-72
2024/03/26 09:32:57;;;;;;;3.42;2.08;;;435.80;1356.80;;;;;;5111535;28;20024;-72
2024/03/26 09:35:23;;;;;;;3.00;1.80;;;436.00;1382.40;;;;;;5112831;28;20035;-72
2024/03/26 09:37:48;;;;;;;4.40;2.88;;;435.70;1331.20;;;;;;5111293;28;20357;-72
2024/03/26 09:40:14;;;;;;;4.68;2.30;;;435.70;1331.20;;;;;;5112315;28;20051;-73
2024/03/26 09:42:40;;;;;;;3.65;1.60;;;435.80;1331.20;;;;;;5112356;28;20024;-72
2024/03/26 09:45:09;;;;;;;5.18;2.70;;;435.70;1331.20;;;;;;5110990;28;20151;-71
2024/03/26 09:47:37;;;;;;;2.90;1.52;;;435.90;1331.20;;;;;;5105475;28;20574;-72
2024/03/26 09:50:03;;;;;;;2.15;1.30;;;436.00;1331.20;;;;;;5111650;28;20027;-73
2024/03/26 09:52:34;;;;;;;2.55;1.40;;;435.80;1305.60;;;;;;5110258;28;20023;-74
2024/03/26 09:55:01;;;;;;;3.67;1.27;;;435.60;1305.60;;;;;;5111507;28;20085;-72
2024/03/26 09:57:27;;;;;;;2.78;1.40;;;435.70;1305.60;;;;;;5102983;28;20030;-72
2024/03/26 09:59:55;;;;;;;5.50;2.28;;;435.80;1305.60;;;;;;5111131;28;20019;-72
2024/03/26 10:02:23;;;;;;;3.28;1.73;;;435.80;1280.00;;;;;;5109619;28;20024;-72
2024/03/26 10:04:49;;;;;;;8.82;2.00;;;436.10;1203.20;;;;;;5111916;28;20056;-72
2024/03/26 10:07:14;;;;;;;5.00;1.70;;;435.90;1203.20;;;;;;5112172;28;20098;-72
2024/03/26 10:09:40;;;;;;;5.28;2.80;;;436.10;1254.40;;;;;;5092808;28;20111;-72
2024/03/26 10:12:10;;;;;;;4.20;2.33;;;461.10;1228.80;;;;;;5100691;28;20020;-72
2024/03/26 10:14:35;;;;;;;3.72;2.47;;;461.20;1254.40;;;;;;5107739;28;20079;-71
2024/03/26 10:17:01;;;;;;;4.72;1.67;;;461.10;1203.20;;;;;;5111384;28;20027;-71
2024/03/26 10:19:27;;;;;;;2.35;1.50;;;461.00;1203.20;;;;;;5111396;28;20027;-72
2024/03/26 10:21:56;;;;;;;1.70;0.90;;;;;;;;;;5111796;28;20027;-73
2024/03/26 10:24:22;;;;;;;2.42;1.35;;;;;;;;;;5110027;28;20018;-72
2024/03/26 10:26:50;;;;;;;2.95;1.30;;;;;;;;;;5108520;28;20391;-72
2024/03/26 10:29:16;;;;;;;3.33;1.50;;;;;;;;;;5111796;28;20302;-72
2024/03/26 10:31:44;;;;;;;1.52;1.00;;;;;;;;;;5107750;28;20020;-72
2024/03/26 10:34:12;;;;;;;1.95;1.27;;;461.10;1228.80;;;;;;5111377;28;20038;-72
2024/03/26 10:36:41;;;;;;;3.80;1.33;;;461.00;1203.20;;;;;;5108370;28;20023;-72
2024/03/26 10:39:10;;;;;;;2.53;1.08;;;461.00;1254.40;;;;;;5091244;28;20036;-72
2024/03/26 10:41:40;;;;;;;3.58;1.20;;;436.10;1152.00;;;;;;5107673;28;20031;-74
2024/03/26 10:44:10;;;;;;;4.05;2.60;;;436.00;1152.00;;;;;;5091387;28;20111;-72
2024/03/26 10:46:37;;;;;;;4.75;2.40;;;436.10;1177.60;;;;;;5091018;28;20170;-72
2024/03/26 10:49:05;;;;;;;4.55;2.17;;;436.00;1152.00;;;;;;5090937;28;20528;-72
2024/03/26 10:51:32;;;;;;;4.35;2.42;;;435.80;1177.60;;;;;;5090853;28;20132;-72
2024/03/26 10:54:01;;;;;;;3.60;1.85;;;436.10;1203.20;;;;;;5090785;28;20016;-72
2024/03/26 10:56:32;;;;;;;2.13;1.30;;;460.80;1152.00;;;;;;5098934;28;20038;-72
2024/03/26 10:58:58;;;;;;;4.55;1.50;;;436.10;1126.40;;;;;;5111075;28;20765;-72
2024/03/26 11:01:26;;;;;;;2.55;1.33;;;436.10;1203.20;;;;;;5111223;28;20036;-72
2024/03/26 11:03:52;;;;;;;2.25;1.50;;;460.80;1254.40;;;;;;5111315;28;20047;-73
2024/03/26 11:06:21;;;;;;;5.15;1.38;;;436.10;1203.20;;;;;;5115208;28;20096;-72
2024/03/26 11:08:47;;;;;;;3.45;1.60;;;461.00;1203.20;;;;;;5114887;28;20082;-73
2024/03/26 11:11:18;;;;;;;3.70;1.40;;;461.40;1203.20;;;;;;5115497;28;20024;-73
2024/03/26 11:13:44;;;;;;;2.58;1.52;;;461.10;1228.80;;;;;;5097764;28;20031;-73
2024/03/26 11:16:34;;;;;;;2.13;1.30;;;461.00;1203.20;;;;;;5094698;28;20376;-72
2024/03/26 11:19:18;;;;;;;2.30;1.50;;;460.80;1228.80;;;;;;5094194;28;20051;-73
2024/03/26 11:21:44;;;;;;;4.35;1.50;;;435.90;1203.20;;;;;;5106557;28;20035;-72
2024/03/26 11:24:26;;;;;;;3.05;1.50;;;436.00;1203.20;;;;;;5113730;28;20054;-72
2024/03/26 11:26:51;;;;;;;2.75;1.80;;;461.10;1254.40;;;;;;5114146;28;20042;-73
2024/03/26 11:29:18;;;;;;;2.17;1.30;;;461.10;1203.20;;;;;;5114702;28;20020;-74
2024/03/26 11:31:45;;;;;;;3.05;1.77;;;460.90;1203.20;;;;;;5095993;28;20049;-73
2024/03/26 11:34:14;;;;;;;4.43;1.98;;;461.10;1228.80;;;;;;5106433;28;20376;-72
2024/03/26 11:36:41;;;;;;;2.28;1.60;;;461.40;1228.80;;;;;;5114069;28;20491;-73
2024/03/26 11:39:11;;;;;;;3.75;1.77;;;461.40;1203.20;;;;;;5114238;28;20024;-72
2024/03/26 11:41:37;;;;;;;3.55;2.10;;;461.50;1228.80;;;;;;5111436;28;20023;-73
2024/03/26 11:44:03;;;;;;;3.42;1.50;;;461.40;1228.80;;;;;;5096827;28;20038;-73
2024/03/26 11:46:28;;;;;;;5.28;3.13;;;461.20;1177.60;;;;;;5112015;28;20023;-74
2024/03/26 11:49:03;;;;;;;2.85;1.80;;;461.20;1203.20;;;;;;5113660;28;20034;-73
2024/03/26 11:51:30;;;;;;;3.03;1.83;;;461.40;1228.80;;;;;;5112538;28;20068;-73
2024/03/26 11:53:56;;;;;;;4.75;2.60;;;461.70;1203.20;;;;;;5114294;28;20113;-73
2024/03/26 11:56:23;;;;;;;4.00;2.47;;;461.50;1203.20;;;;;;5113889;28;20024;-76
2024/03/26 11:58:50;;;;;;;3.67;2.47;;;461.50;1203.20;;;;;;5109945;28;20030;-74
2024/03/26 12:01:20;;;;;;;4.30;2.00;;;486.50;1228.80;;;;;;5109530;28;20789;-74
2024/03/26 12:04:02;;;;;;;3.83;1.92;;;461.70;1152.00;;;;;;5113819;28;20054;-72
2024/03/26 12:06:30;;;;;;;6.18;3.28;;;461.70;1152.00;;;;;;5110892;28;20042;-73
2024/03/26 12:08:57;;;;;;;4.70;2.70;;;461.50;1152.00;;;;;;5113755;28;20072;-74
2024/03/26 12:11:25;;;;;;;3.70;2.38;;;461.40;1177.60;;;;;;5113998;28;20019;-74
2024/03/26 12:13:52;;;;;;;8.38;1.92;;;461.60;1203.20;;;;;;5114089;28;20132;-74
2024/03/26 12:16:22;;;;;;;5.15;2.03;;;461.50;1203.20;;;;;;5113040;28;20049;-74
2024/03/26 12:18:48;;;;;;;6.53;2.20;;;461.40;1228.80;;;;;;5106043;28;20552;-74
2024/03/26 12:21:15;;;;;;;5.03;2.42;;;486.40;1254.40;;;;;;5107009;28;20107;-74
2024/03/26 12:23:41;;;;;;;4.20;1.77;;;461.60;1254.40;;;;;;5109268;28;20568;-74
2024/03/26 12:26:07;;;;;;;6.15;2.13;;;461.60;1254.40;;;;;;5104726;28;20044;-74
2024/03/26 12:28:34;;;;;;;2.97;2.00;;;461.20;1254.40;;;;;;5112714;28;20089;-73
2024/03/26 12:31:00;;;;;;;3.70;2.22;;;461.40;1254.40;;;;;;5108425;28;20057;-74
2024/03/26 12:33:26;;;;;;;4.20;2.20;;;461.50;1280.00;;;;;;5109431;28;20031;-73
2024/03/26 12:35:52;;;;;;;2.95;1.85;;;461.30;1280.00;;;;;;5110776;28;20031;-74
2024/03/26 12:38:17;;;;;;;4.35;2.55;;;461.30;1228.80;;;;;;5107790;28;20036;-71
2024/03/26 12:40:43;;;;;;;3.92;2.20;;;461.30;1254.40;;;;;;5110525;28;20096;-71
2024/03/26 12:43:09;;;;;;;4.50;2.15;;;461.40;1228.80;;;;;;5105589;28;20925;-72
2024/03/26 12:45:34;;;;;;;3.58;1.77;;;461.40;1254.40;;;;;;5106097;28;20043;-71
2024/03/26 12:48:00;;;;;;;2.35;1.65;;;461.30;1203.20;;;;;;5083209;28;20076;-71
2024/03/26 12:50:26;;;;;;;3.05;1.70;;;461.30;1203.20;;;;;;5106272;28;20036;-74
2024/03/26 12:52:52;;;;;;;4.50;1.80;;;461.30;1203.20;;;;;;5109126;28;20016;-72
2024/03/26 12:55:18;;;;;;;4.28;1.95;;;461.70;1280.00;;;;;;5102518;28;20043;-72